Time;durP1;ratioP1;P1;durP2;ratioP2;P2;SDS_P1;SDS_P2;PMS_P1;PMS_P2;Temp;Humidity;BMP_temperature;BMP_pressure;BME280_temperature;BME280_humidity;BME280_pressure;Samples;Min_cycle;Max_cycle;Signal;HPM_P1;HPM_P2
2023/04/20 00:00:47;;;;;;;7.97;2.97;;;7.80;95.00;;;;;;5093331;28;20069;-47
2023/04/20 00:03:13;;;;;;;9.13;3.63;;;7.70;95.10;;;;;;5093721;28;20032;-47
2023/04/20 00:05:38;;;;;;;5.13;2.88;;;7.60;95.30;;;;;;5093490;28;20474;-48
2023/04/20 00:08:04;;;;;;;9.32;3.80;;;7.60;95.50;;;;;;5093539;28;20398;-50
2023/04/20 00:10:29;;;;;;;7.60;3.95;;;7.60;95.50;;;;;;5093077;28;20035;-46
2023/04/20 00:12:55;;;;;;;5.00;3.10;;;7.60;95.50;;;;;;5093325;28;20052;-46
2023/04/20 00:15:20;;;;;;;5.28;3.15;;;7.70;95.70;;;;;;5093149;28;20027;-47
2023/04/20 00:17:47;;;;;;;4.22;3.10;;;7.60;95.60;;;;;;5074883;28;20482;-47
2023/04/20 00:20:14;;;;;;;4.93;3.20;;;7.60;95.80;;;;;;5074984;28;20074;-48
2023/04/20 00:22:39;;;;;;;5.82;3.97;;;7.60;95.80;;;;;;5093694;28;20073;-55
2023/04/20 00:25:05;;;;;;;7.40;3.38;;;7.60;95.90;;;;;;5075053;28;20036;-51
2023/04/20 00:27:31;;;;;;;4.68;3.30;;;7.60;96.10;;;;;;5075702;28;20101;-50
2023/04/20 00:29:57;;;;;;;4.38;2.97;;;7.60;96.10;;;;;;5093903;28;20482;-54
2023/04/20 00:32:23;;;;;;;6.15;3.60;;;7.50;96.20;;;;;;5093518;28;20054;-50
2023/04/20 00:34:49;;;;;;;5.30;3.20;;;7.50;96.40;;;;;;5093223;28;20020;-51
2023/04/20 00:37:14;;;;;;;3.83;3.17;;;7.50;96.40;;;;;;5092272;28;20103;-53
2023/04/20 00:39:40;;;;;;;6.55;3.70;;;7.50;96.50;;;;;;5093062;28;20419;-53
2023/04/20 00:42:08;;;;;;;8.07;3.38;;;7.50;96.60;;;;;;5092588;28;20111;-51
2023/04/20 00:44:34;;;;;;;4.18;3.20;;;7.50;96.70;;;;;;5092330;28;20031;-50
2023/04/20 00:47:00;;;;;;;5.10;3.30;;;7.40;96.90;;;;;;5092310;28;20418;-53
2023/04/20 00:49:28;;;;;;;5.28;2.90;;;7.30;97.10;;;;;;5092335;28;20028;-51
2023/04/20 00:51:56;;;;;;;6.15;4.53;;;7.20;97.20;;;;;;5074313;28;20056;-49
2023/04/20 00:54:22;;;;;;;9.80;3.63;;;7.20;97.20;;;;;;5074571;28;20097;-55
2023/04/20 00:56:48;;;;;;;5.55;3.75;;;7.20;97.40;;;;;;5075000;28;20024;-54
2023/04/20 00:59:14;;;;;;;5.88;4.22;;;7.20;97.50;;;;;;5093357;28;20051;-54
2023/04/20 01:01:40;;;;;;;7.22;3.92;;;7.20;97.60;;;;;;5093016;28;20644;-54
2023/04/20 01:04:06;;;;;;;5.95;3.67;;;7.20;97.70;;;;;;5075066;28;20020;-54
2023/04/20 01:06:32;;;;;;;13.65;3.63;;;7.10;97.90;;;;;;5118245;22;20028;-52
2023/04/20 01:08:57;;;;;;;9.02;3.38;;;7.10;98.00;;;;;;5050176;28;20492;-47
2023/04/20 01:11:23;;;;;;;4.03;2.97;;;7.10;98.20;;;;;;5072238;28;20029;-48
2023/04/20 01:13:49;;;;;;;8.40;3.40;;;7.10;98.30;;;;;;5054169;28;20025;-55
2023/04/20 01:16:15;;;;;;;5.53;3.90;;;7.00;98.40;;;;;;5053878;28;20020;-54
2023/04/20 01:18:48;;;;;;;8.65;3.65;;;7.00;98.50;;;;;;5054245;28;20023;-53
2023/04/20 01:21:15;;;;;;;6.03;3.03;;;7.00;98.50;;;;;;5053814;28;20016;-48
2023/04/20 01:23:41;;;;;;;4.82;3.45;;;7.00;98.60;;;;;;5053831;28;20020;-52
2023/04/20 01:26:09;;;;;;;5.90;4.25;;;7.00;98.70;;;;;;5071977;28;20480;-58
2023/04/20 01:28:34;;;;;;;8.50;3.50;;;6.90;98.90;;;;;;5053964;28;20020;-49
2023/04/20 01:31:02;;;;;;;9.40;4.40;;;6.90;99.10;;;;;;5053167;28;20112;-49
2023/04/20 01:33:28;;;;;;;7.28;3.55;;;6.90;99.20;;;;;;5053451;28;20492;-50
2023/04/20 01:35:54;;;;;;;10.57;3.97;;;6.90;99.30;;;;;;5071279;28;20017;-52
2023/04/20 01:38:21;;;;;;;6.05;3.70;;;6.80;99.40;;;;;;5053234;28;20027;-54
2023/04/20 01:40:47;;;;;;;10.65;3.50;;;6.70;99.60;;;;;;5071802;28;20035;-48
2023/04/20 01:43:13;;;;;;;8.75;4.22;;;6.70;99.70;;;;;;5071000;28;20029;-48
2023/04/20 01:45:39;;;;;;;8.43;3.80;;;6.70;99.70;;;;;;5071060;28;20035;-54
2023/04/20 01:48:04;;;;;;;7.55;4.30;;;6.70;99.80;;;;;;5072871;28;20487;-53
2023/04/20 01:50:30;;;;;;;10.93;4.30;;;6.70;99.80;;;;;;5057179;28;20066;-53
2023/04/20 01:52:55;;;;;;;4.90;3.60;;;6.70;99.90;;;;;;5075265;28;20476;-53
2023/04/20 01:55:21;;;;;;;6.63;3.92;;;6.80;99.90;;;;;;5074995;28;20017;-50
2023/04/20 01:57:46;;;;;;;5.50;3.63;;;6.70;99.80;;;;;;5075209;28;20020;-53
2023/04/20 02:00:13;;;;;;;13.20;3.42;;;6.70;99.90;;;;;;5075080;28;20601;-57
2023/04/20 02:02:39;;;;;;;4.00;3.40;;;6.60;99.90;;;;;;5075005;28;20457;-53
2023/04/20 02:05:04;;;;;;;5.80;3.83;;;6.60;99.90;;;;;;5074528;28;20108;-53
2023/04/20 02:07:30;;;;;;;11.35;4.07;;;6.60;99.90;;;;;;5074802;28;20036;-49
2023/04/20 02:09:56;;;;;;;5.10;3.63;;;6.60;99.90;;;;;;5074894;28;20048;-53
2023/04/20 02:12:21;;;;;;;5.70;3.60;;;6.50;99.90;;;;;;5057161;28;20024;-49
2023/04/20 02:14:47;;;;;;;7.95;3.67;;;6.40;99.90;;;;;;5074783;28;20021;-49
2023/04/20 02:17:12;;;;;;;8.10;3.63;;;6.40;99.90;;;;;;5056828;28;20419;-50
2023/04/20 02:19:38;;;;;;;7.85;4.45;;;6.30;99.90;;;;;;5074844;28;20184;-54
2023/04/20 02:22:04;;;;;;;10.55;4.10;;;6.30;99.90;;;;;;5056667;28;20077;-48
2023/04/20 02:24:29;;;;;;;6.20;3.65;;;6.30;99.90;;;;;;5056837;28;20029;-50
2023/04/20 02:26:55;;;;;;;6.72;3.55;;;6.30;99.90;;;;;;5074590;28;20546;-56
2023/04/20 02:29:21;;;;;;;6.80;4.10;;;6.20;99.90;;;;;;5074631;28;20032;-56
2023/04/20 02:31:47;;;;;;;7.82;3.45;;;6.20;99.90;;;;;;5056684;28;20020;-49
2023/04/20 02:34:12;;;;;;;10.95;4.43;;;6.10;99.90;;;;;;5074260;28;20033;-50
2023/04/20 02:36:38;;;;;;;6.13;4.25;;;6.10;99.90;;;;;;5056583;28;20021;-51
2023/04/20 02:39:04;;;;;;;7.72;3.95;;;6.10;99.90;;;;;;5074147;28;20499;-49
2023/04/20 02:41:30;;;;;;;8.93;4.32;;;6.00;99.90;;;;;;5074242;28;20029;-57
2023/04/20 02:43:55;;;;;;;7.68;3.88;;;6.00;99.90;;;;;;5074488;28;20103;-50
2023/04/20 02:46:21;;;;;;;11.50;4.25;;;6.10;99.90;;;;;;5074078;28;20042;-48
2023/04/20 02:48:46;;;;;;;5.57;3.95;;;6.10;99.90;;;;;;5056081;28;20491;-48
2023/04/20 02:51:12;;;;;;;5.30;3.78;;;6.10;99.90;;;;;;5074336;28;20492;-51
2023/04/20 02:53:37;;;;;;;8.88;3.67;;;6.00;99.90;;;;;;5074325;28;20374;-56
2023/04/20 02:56:03;;;;;;;6.50;3.95;;;6.00;99.90;;;;;;5073940;28;20082;-53
2023/04/20 02:58:28;;;;;;;8.88;4.55;;;5.90;99.90;;;;;;5073563;28;20425;-56
2023/04/20 03:01:00;;;;;;;6.35;4.00;;;5.90;99.90;;;;;;5072865;28;20488;-54
2023/04/20 03:03:27;;;;;;;9.07;4.35;;;6.00;99.90;;;;;;5074142;28;20492;-53
2023/04/20 03:05:53;;;;;;;11.13;4.75;;;5.90;99.90;;;;;;5073687;28;20442;-54
2023/04/20 03:08:19;;;;;;;6.70;4.10;;;5.80;99.90;;;;;;5073663;28;20043;-53
2023/04/20 03:10:45;;;;;;;11.45;4.22;;;5.80;99.90;;;;;;5073606;28;20021;-54
2023/04/20 03:13:10;;;;;;;4.82;4.10;;;5.80;99.90;;;;;;5073057;28;20107;-52
2023/04/20 03:15:36;;;;;;;7.78;4.05;;;5.60;99.90;;;;;;5073584;28;20418;-50
2023/04/20 03:18:02;;;;;;;5.45;3.97;;;5.60;99.90;;;;;;5073532;28;20020;-52
2023/04/20 03:20:28;;;;;;;8.30;4.15;;;5.50;99.90;;;;;;5073503;28;20024;-52
2023/04/20 03:22:53;;;;;;;18.42;4.43;;;5.50;99.90;;;;;;5073507;28;20035;-46
2023/04/20 03:25:19;;;;;;;8.95;4.20;;;5.40;99.90;;;;;;5073169;28;20042;-51
2023/04/20 03:27:46;;;;;;;6.65;4.32;;;5.40;99.90;;;;;;5073444;28;20116;-54
2023/04/20 03:30:12;;;;;;;7.28;4.38;;;5.40;99.90;;;;;;5073282;28;20020;-51
2023/04/20 03:32:37;;;;;;;5.82;4.32;;;5.50;99.90;;;;;;5073533;28;20082;-54
2023/04/20 03:35:04;;;;;;;6.75;4.28;;;5.50;99.90;;;;;;5073178;28;20557;-53
2023/04/20 03:37:30;;;;;;;11.50;3.92;;;5.40;99.90;;;;;;5073181;28;20017;-52
2023/04/20 03:39:55;;;;;;;15.07;4.57;;;5.40;99.90;;;;;;5073064;28;20484;-55
2023/04/20 03:42:21;;;;;;;9.45;4.38;;;5.30;99.90;;;;;;5073241;28;20450;-53
2023/04/20 03:44:46;;;;;;;6.40;4.65;;;5.40;99.90;;;;;;5072813;28;20557;-50
2023/04/20 03:47:12;;;;;;;13.95;4.97;;;5.30;99.90;;;;;;5054808;28;20029;-52
2023/04/20 03:49:37;;;;;;;6.95;4.93;;;5.30;99.90;;;;;;5072880;28;20396;-51
2023/04/20 03:52:04;;;;;;;6.55;4.53;;;5.30;99.90;;;;;;5072993;28;20056;-51
2023/04/20 03:54:30;;;;;;;5.70;4.20;;;5.40;99.90;;;;;;5072780;28;20021;-49
2023/04/20 03:56:55;;;;;;;7.20;5.07;;;5.40;99.90;;;;;;5072828;28;20498;-48
2023/04/20 03:59:21;;;;;;;5.15;4.55;;;5.40;99.90;;;;;;5072882;28;20404;-50
2023/04/20 04:01:46;;;;;;;6.15;4.20;;;5.40;99.90;;;;;;5072821;28;20024;-54
2023/04/20 04:04:12;;;;;;;7.88;4.78;;;5.40;99.90;;;;;;5072637;28;20480;-51
2023/04/20 04:06:37;;;;;;;7.88;4.00;;;5.40;99.90;;;;;;5072545;28;20115;-54
2023/04/20 04:09:03;;;;;;;10.23;4.43;;;5.40;99.90;;;;;;5072577;28;20392;-50
2023/04/20 04:11:29;;;;;;;5.68;4.70;;;5.40;99.90;;;;;;5072427;28;20086;-53
2023/04/20 04:13:56;;;;;;;12.60;4.93;;;5.40;99.90;;;;;;5072656;28;20503;-49
2023/04/20 04:16:21;;;;;;;12.05;4.93;;;5.40;99.90;;;;;;5072620;28;20032;-52
2023/04/20 04:18:47;;;;;;;7.82;4.50;;;5.50;99.90;;;;;;5072095;28;20506;-55
2023/04/20 04:21:12;;;;;;;6.97;4.88;;;5.60;99.90;;;;;;5072379;28;20595;-49
2023/04/20 04:23:38;;;;;;;10.48;5.75;;;5.60;99.90;;;;;;5054180;28;20040;-58
2023/04/20 04:26:04;;;;;;;6.60;4.50;;;5.60;99.90;;;;;;5072243;28;20093;-52
2023/04/20 04:28:30;;;;;;;7.05;5.07;;;5.60;99.90;;;;;;5072158;28;20048;-52
2023/04/20 04:30:56;;;;;;;6.47;4.97;;;5.70;99.90;;;;;;5072035;28;20024;-54
2023/04/20 04:33:22;;;;;;;5.72;5.13;;;5.70;99.90;;;;;;5072108;28;20073;-56
2023/04/20 04:35:48;;;;;;;10.38;4.80;;;5.70;99.90;;;;;;5072085;28;20025;-49
2023/04/20 04:38:14;;;;;;;9.38;5.15;;;5.80;99.90;;;;;;5072045;28;20388;-54
2023/04/20 04:40:40;;;;;;;6.90;4.90;;;5.80;99.90;;;;;;5072003;28;20028;-50
2023/04/20 04:43:06;;;;;;;12.20;5.90;;;5.80;99.90;;;;;;5072024;28;20491;-50
2023/04/20 04:45:32;;;;;;;9.32;5.43;;;5.80;99.90;;;;;;5071728;28;20047;-53
2023/04/20 04:47:57;;;;;;;7.70;5.05;;;5.90;99.90;;;;;;5071995;28;20028;-53
2023/04/20 04:50:23;;;;;;;7.90;5.00;;;5.90;99.90;;;;;;5053590;28;20031;-51
2023/04/20 04:52:49;;;;;;;6.60;5.38;;;5.90;99.90;;;;;;5071480;28;20025;-54
2023/04/20 04:55:14;;;;;;;11.38;6.43;;;6.00;99.90;;;;;;5054223;28;20108;-54
2023/04/20 04:57:40;;;;;;;11.60;6.25;;;6.00;99.90;;;;;;5071648;28;20033;-51
2023/04/20 05:00:08;;;;;;;6.88;5.35;;;6.00;99.90;;;;;;5071923;28;20100;-52
2023/04/20 05:02:34;;;;;;;7.30;6.55;;;6.10;99.90;;;;;;5053644;28;20025;-51
2023/04/20 05:05:00;;;;;;;17.80;7.70;;;6.00;99.90;;;;;;5071617;28;20025;-51
2023/04/20 05:07:25;;;;;;;10.68;6.05;;;6.10;99.90;;;;;;5053360;28;20384;-52
2023/04/20 05:09:51;;;;;;;8.88;6.10;;;6.10;99.90;;;;;;5071371;28;20043;-54
2023/04/20 05:12:18;;;;;;;8.52;6.18;;;6.10;99.90;;;;;;5071562;28;20036;-50
2023/04/20 05:14:43;;;;;;;7.85;6.40;;;6.20;99.90;;;;;;5071444;28;20070;-56
2023/04/20 05:17:09;;;;;;;10.73;6.93;;;6.20;99.90;;;;;;5071474;28;20024;-49
2023/04/20 05:19:34;;;;;;;15.02;6.43;;;6.30;99.90;;;;;;5071430;28;20032;-51
2023/04/20 05:22:00;;;;;;;7.20;6.30;;;6.30;99.90;;;;;;5070954;28;20033;-53
2023/04/20 05:24:25;;;;;;;6.97;6.05;;;6.30;99.90;;;;;;5052972;28;20025;-52
2023/04/20 05:26:51;;;;;;;7.63;6.65;;;6.30;99.90;;;;;;5071460;28;20029;-51
2023/04/20 05:29:17;;;;;;;11.43;7.35;;;6.40;99.90;;;;;;5071602;28;20093;-52
2023/04/20 05:31:43;;;;;;;9.65;6.82;;;6.20;99.90;;;;;;5071512;28;20017;-55
2023/04/20 05:34:09;;;;;;;7.05;6.03;;;6.20;99.90;;;;;;5071723;28;20024;-50
2023/04/20 05:36:35;;;;;;;8.82;6.65;;;6.20;99.90;;;;;;5053028;28;20028;-49
2023/04/20 05:39:01;;;;;;;11.38;6.65;;;6.30;99.90;;;;;;5071113;28;20025;-53
2023/04/20 05:41:27;;;;;;;7.40;6.22;;;6.20;99.90;;;;;;5071215;28;20368;-54
2023/04/20 05:43:53;;;;;;;14.48;6.82;;;6.20;99.90;;;;;;5053064;28;20444;-51
2023/04/20 05:46:19;;;;;;;13.60;6.97;;;6.20;99.90;;;;;;5070858;28;20029;-58
2023/04/20 05:48:45;;;;;;;11.15;7.07;;;6.20;99.90;;;;;;5071009;28;20025;-50
2023/04/20 05:51:11;;;;;;;10.52;7.57;;;6.30;99.90;;;;;;5071069;28;20021;-54
2023/04/20 05:53:36;;;;;;;12.38;7.47;;;6.30;99.90;;;;;;5071108;28;20021;-49
2023/04/20 05:56:02;;;;;;;11.77;7.00;;;6.40;99.90;;;;;;5071044;28;20063;-52
2023/04/20 05:58:28;;;;;;;12.70;7.45;;;6.30;99.90;;;;;;5070791;28;20484;-55
2023/04/20 06:00:54;;;;;;;9.43;7.13;;;6.40;99.90;;;;;;5071420;28;20024;-55
2023/04/20 06:03:19;;;;;;;9.90;7.22;;;6.20;99.90;;;;;;5070920;28;20031;-53
2023/04/20 06:05:45;;;;;;;10.05;7.20;;;6.30;99.90;;;;;;5070846;28;20029;-52
2023/04/20 06:08:10;;;;;;;10.73;7.60;;;6.40;99.90;;;;;;5070773;28;20040;-50
2023/04/20 06:10:36;;;;;;;9.98;7.78;;;6.40;99.90;;;;;;5070769;28;20081;-50
2023/04/20 06:13:01;;;;;;;13.57;8.40;;;6.40;99.90;;;;;;5070975;28;20090;-53
2023/04/20 06:15:27;;;;;;;10.55;8.05;;;6.50;99.90;;;;;;5070635;28;20025;-50
2023/04/20 06:17:52;;;;;;;13.82;8.07;;;6.60;99.90;;;;;;5070794;28;20510;-49
2023/04/20 06:20:19;;;;;;;10.10;7.93;;;6.60;99.90;;;;;;5070844;28;20063;-54
2023/04/20 06:22:45;;;;;;;17.65;8.48;;;6.60;99.90;;;;;;5070784;28;20025;-53
2023/04/20 06:25:12;;;;;;;8.32;7.50;;;6.60;99.90;;;;;;5070712;28;20020;-51
2023/04/20 06:27:38;;;;;;;9.65;7.78;;;6.40;99.90;;;;;;5070817;28;20435;-52
2023/04/20 06:30:04;;;;;;;16.38;8.13;;;6.30;99.90;;;;;;5070778;28;20051;-50
2023/04/20 06:32:30;;;;;;;10.75;7.97;;;6.30;99.90;;;;;;5070794;28;20020;-54
2023/04/20 06:34:56;;;;;;;9.48;7.75;;;6.30;99.90;;;;;;5072069;28;20093;-49
2023/04/20 06:37:21;;;;;;;10.55;7.80;;;6.30;99.90;;;;;;5074253;28;20048;-50
2023/04/20 06:39:46;;;;;;;9.70;7.55;;;6.20;99.90;;;;;;5074179;28;20020;-49
2023/04/20 06:42:12;;;;;;;9.20;8.02;;;6.30;99.90;;;;;;5074297;28;20519;-49
2023/04/20 06:44:39;;;;;;;9.88;8.00;;;6.40;99.90;;;;;;5074252;28;20028;-50
2023/04/20 06:47:05;;;;;;;11.98;8.18;;;6.50;99.90;;;;;;5055966;28;20020;-52
2023/04/20 06:49:30;;;;;;;10.70;7.57;;;6.50;99.90;;;;;;5074079;28;20028;-49
2023/04/20 06:51:55;;;;;;;10.55;8.02;;;6.50;99.90;;;;;;5074092;28;20052;-50
2023/04/20 06:54:21;;;;;;;12.57;8.25;;;6.40;99.90;;;;;;5074162;28;20021;-49
2023/04/20 06:56:47;;;;;;;11.13;8.70;;;6.30;99.90;;;;;;5074338;28;20381;-54
2023/04/20 06:59:15;;;;;;;9.88;8.07;;;6.30;99.90;;;;;;5074033;28;20078;-52
2023/04/20 07:01:40;;;;;;;11.00;7.40;;;6.30;99.90;;;;;;5073949;28;20051;-50
2023/04/20 07:04:06;;;;;;;9.20;7.38;;;6.30;99.90;;;;;;5074087;28;20064;-50
2023/04/20 07:06:32;;;;;;;10.15;7.50;;;6.30;99.90;;;;;;5073550;28;20044;-52
2023/04/20 07:08:57;;;;;;;11.45;7.60;;;6.20;99.90;;;;;;5074504;28;20503;-53
2023/04/20 07:11:23;;;;;;;7.40;6.65;;;6.30;99.90;;;;;;5073963;28;20029;-51
2023/04/20 07:13:49;;;;;;;9.45;7.95;;;6.40;99.90;;;;;;5073506;28;20544;-48
2023/04/20 07:16:15;;;;;;;9.70;7.07;;;6.50;99.90;;;;;;5073709;28;20040;-46
2023/04/20 07:18:40;;;;;;;8.43;7.50;;;6.60;99.90;;;;;;5073356;28;20027;-46
2023/04/20 07:21:06;;;;;;;10.32;6.85;;;6.70;99.90;;;;;;5073483;28;20462;-53
2023/04/20 07:23:31;;;;;;;7.20;6.00;;;6.70;99.90;;;;;;5073567;28;20036;-52
2023/04/20 07:25:57;;;;;;;6.95;5.72;;;6.70;99.90;;;;;;5073594;28;20418;-54
2023/04/20 07:28:22;;;;;;;8.43;6.47;;;6.70;99.90;;;;;;5073450;28;20036;-53
2023/04/20 07:30:48;;;;;;;9.90;6.07;;;6.80;99.90;;;;;;5073314;28;20028;-53
2023/04/20 07:33:13;;;;;;;14.60;5.45;;;6.90;99.90;;;;;;5073986;28;20691;-51
2023/04/20 07:35:39;;;;;;;9.68;5.75;;;6.90;99.90;;;;;;5073135;28;20025;-53
2023/04/20 07:38:04;;;;;;;12.05;6.05;;;6.90;99.90;;;;;;5073296;28;20021;-48
2023/04/20 07:40:30;;;;;;;6.68;5.97;;;6.90;99.90;;;;;;5073041;28;20487;-52
2023/04/20 07:42:55;;;;;;;5.80;5.07;;;7.00;99.90;;;;;;5073293;28;20032;-54
2023/04/20 07:45:22;;;;;;;7.43;5.70;;;7.10;99.90;;;;;;5072717;28;20040;-52
2023/04/20 07:47:50;;;;;;;7.70;6.18;;;7.20;99.90;;;;;;5072796;28;20024;-49
2023/04/20 07:50:16;;;;;;;7.05;5.43;;;7.20;99.90;;;;;;5073389;28;20051;-49
2023/04/20 07:52:43;;;;;;;5.82;5.20;;;7.50;99.90;;;;;;5073438;28;20028;-52
2023/04/20 07:55:10;;;;;;;5.90;5.30;;;7.70;99.90;;;;;;5072882;28;20028;-53
2023/04/20 07:57:36;;;;;;;10.30;5.82;;;7.70;99.90;;;;;;5073095;28;20040;-49
2023/04/20 08:00:06;;;;;;;6.32;5.50;;;8.30;99.90;;;;;;5072923;28;20554;-55
2023/04/20 08:02:31;;;;;;;5.78;4.82;;;9.30;99.90;;;;;;5072975;28;20028;-58
2023/04/20 08:04:57;;;;;;;6.03;4.88;;;10.30;99.90;;;;;;5065607;28;20031;-57
2023/04/20 08:07:23;;;;;;;7.80;5.13;;;10.60;99.90;;;;;;5052889;28;20390;-58
2023/04/20 08:09:48;;;;;;;6.65;5.35;;;10.60;99.90;;;;;;5055375;28;20029;-57
2023/04/20 08:12:14;;;;;;;12.68;5.47;;;10.30;99.90;;;;;;5072904;28;20468;-59
2023/04/20 08:14:40;;;;;;;12.05;5.50;;;9.60;99.90;;;;;;5069452;28;20408;-57
2023/04/20 08:17:06;;;;;;;7.15;5.20;;;9.10;99.90;;;;;;5052641;28;20017;-51
2023/04/20 08:19:32;;;;;;;6.53;5.38;;;8.90;99.90;;;;;;5052393;28;20033;-53
2023/04/20 08:21:57;;;;;;;11.77;5.78;;;8.80;99.90;;;;;;5052478;28;20389;-53
2023/04/20 08:24:23;;;;;;;7.43;5.18;;;8.90;99.90;;;;;;5034589;28;20029;-51
2023/04/20 08:26:49;;;;;;;11.55;5.90;;;9.00;99.90;;;;;;5052531;28;20075;-52
2023/04/20 08:29:14;;;;;;;5.47;4.97;;;9.30;99.90;;;;;;5059025;28;20028;-57
2023/04/20 08:31:40;;;;;;;6.10;5.18;;;9.60;99.90;;;;;;5072889;28;20025;-50
2023/04/20 08:34:05;;;;;;;6.53;5.43;;;9.60;99.90;;;;;;5049617;28;20021;-50
2023/04/20 08:36:31;;;;;;;6.60;5.43;;;9.50;99.90;;;;;;5058397;28;20033;-51
2023/04/20 08:39:06;;;;;;;6.72;5.45;;;9.50;99.90;;;;;;5060943;28;20074;-50
2023/04/20 08:41:32;;;;;;;6.60;5.32;;;9.50;99.90;;;;;;5052295;28;20096;-52
2023/04/20 08:43:57;;;;;;;8.38;5.63;;;9.50;99.90;;;;;;5052088;28;20467;-51
2023/04/20 08:46:23;;;;;;;5.60;5.00;;;9.30;99.90;;;;;;5052194;28;20155;-51
2023/04/20 08:48:51;;;;;;;6.78;5.32;;;9.20;99.90;;;;;;5052806;28;20377;-58
2023/04/20 08:51:17;;;;;;;8.35;5.72;;;9.00;99.90;;;;;;5062715;28;20025;-61
2023/04/20 08:53:43;;;;;;;7.72;5.68;;;9.00;99.90;;;;;;5055414;28;20024;-58
2023/04/20 08:56:08;;;;;;;8.02;5.35;;;8.80;99.90;;;;;;5052778;28;20407;-58
2023/04/20 08:58:34;;;;;;;9.73;5.97;;;8.90;99.90;;;;;;5032924;28;20031;-52
2023/04/20 09:01:00;;;;;;;9.48;6.60;;;9.00;99.90;;;;;;5033620;28;20021;-57
2023/04/20 09:03:40;;;;;;;6.15;5.15;;;9.10;99.90;;;;;;5051824;28;20100;-50
2023/04/20 09:06:16;;;;;;;7.38;5.35;;;9.00;99.90;;;;;;5055276;28;20423;-56
2023/04/20 09:08:42;;;;;;;9.15;6.00;;;9.30;99.90;;;;;;5065110;28;20040;-52
2023/04/20 09:11:21;;;;;;;7.18;5.47;;;9.50;99.90;;;;;;5053445;28;20434;-54
2023/04/20 09:14:01;;;;;;;6.68;5.45;;;9.70;99.90;;;;;;5060525;28;20044;-52
2023/04/20 09:16:28;;;;;;;6.72;5.32;;;9.80;99.90;;;;;;5070012;28;20480;-50
2023/04/20 09:18:55;;;;;;;8.02;5.30;;;9.90;99.90;;;;;;5071374;28;20107;-51
2023/04/20 09:21:23;;;;;;;9.48;5.88;;;9.80;99.90;;;;;;5065417;28;20020;-54
2023/04/20 09:23:59;;;;;;;6.93;5.00;;;10.00;99.90;;;;;;5056422;28;20025;-53
2023/04/20 09:26:25;;;;;;;8.18;6.47;;;10.20;99.90;;;;;;5057551;28;20103;-46
2023/04/20 09:28:51;;;;;;;7.53;5.05;;;10.30;99.90;;;;;;5044235;28;20048;-54
2023/04/20 09:31:18;;;;;;;7.00;5.70;;;10.30;99.90;;;;;;5044664;28;20029;-54
2023/04/20 09:33:44;;;;;;;15.10;5.40;;;10.30;99.90;;;;;;5051185;28;20116;-51
2023/04/20 09:36:10;;;;;;;6.90;5.15;;;10.30;99.90;;;;;;5062022;28;20025;-45
2023/04/20 09:38:36;;;;;;;7.38;5.40;;;10.20;99.90;;;;;;5060276;28;20045;-50
2023/04/20 09:41:02;;;;;;;9.30;6.13;;;10.20;99.90;;;;;;5052958;28;20055;-54
2023/04/20 09:43:31;;;;;;;10.02;5.40;;;10.30;99.90;;;;;;5071113;28;20437;-49
2023/04/20 09:45:58;;;;;;;10.15;5.47;;;10.50;99.90;;;;;;5067706;28;20036;-50
2023/04/20 09:48:23;;;;;;;6.45;4.93;;;10.60;99.90;;;;;;5067404;28;20466;-52
2023/04/20 09:50:49;;;;;;;10.77;5.43;;;10.80;99.90;;;;;;5066626;28;20047;-53
2023/04/20 09:53:16;;;;;;;37.53;21.90;;;11.60;99.90;;;;;;5053002;28;20067;-56
2023/04/20 09:55:46;;;;;;;11.25;7.03;;;12.30;99.90;;;;;;5053074;28;20028;-54
2023/04/20 09:58:12;;;;;;;7.43;4.97;;;12.60;99.90;;;;;;5044610;28;20121;-57
2023/04/20 10:00:38;;;;;;;5.60;4.82;;;12.90;99.90;;;;;;5060015;28;20037;-48
2023/04/20 10:03:05;;;;;;;5.05;4.32;;;13.20;99.90;;;;;;5063244;28;20025;-49
2023/04/20 10:05:35;;;;;;;7.95;4.63;;;13.20;99.20;;;;;;5061989;28;20536;-53
2023/04/20 10:08:01;;;;;;;5.70;4.65;;;13.30;98.30;;;;;;5050606;28;20037;-53
2023/04/20 10:10:27;;;;;;;7.38;4.80;;;13.40;98.10;;;;;;5054747;28;20032;-50
2023/04/20 10:12:54;;;;;;;10.13;5.55;;;13.30;98.00;;;;;;5053478;28;20036;-54
2023/04/20 10:15:21;;;;;;;5.45;4.50;;;12.30;98.90;;;;;;5067032;28;20029;-55
2023/04/20 10:17:47;;;;;;;9.45;4.93;;;11.90;99.80;;;;;;5055692;28;20044;-55
2023/04/20 10:20:24;;;;;;;8.25;4.85;;;11.90;99.90;;;;;;5053013;28;20052;-58
2023/04/20 10:22:51;;;;;;;17.98;5.20;;;11.80;99.90;;;;;;5054723;28;20021;-51
2023/04/20 10:25:22;;;;;;;5.75;5.22;;;11.70;99.90;;;;;;5054526;28;20401;-52
2023/04/20 10:27:56;;;;;;;6.22;5.03;;;11.60;99.90;;;;;;5054729;28;20104;-52
2023/04/20 10:30:22;;;;;;;8.35;5.35;;;11.40;99.90;;;;;;5054426;28;20393;-53
2023/04/20 10:32:48;;;;;;;7.53;5.47;;;11.30;99.90;;;;;;5054408;28;20457;-53
2023/04/20 10:35:15;;;;;;;9.98;5.20;;;11.50;99.90;;;;;;5054162;28;20052;-50
2023/04/20 10:37:50;;;;;;;8.05;5.05;;;11.90;99.90;;;;;;5036286;28;20111;-52
2023/04/20 10:40:24;;;;;;;10.07;4.95;;;12.20;99.40;;;;;;5054716;28;20033;-50
2023/04/20 10:42:50;;;;;;;17.60;5.47;;;12.40;99.90;;;;;;5054636;28;20021;-52
2023/04/20 10:45:15;;;;;;;9.55;4.85;;;12.20;99.30;;;;;;5054311;28;20039;-53
2023/04/20 10:47:41;;;;;;;10.60;4.32;;;12.30;99.60;;;;;;5054093;28;20116;-50
2023/04/20 10:50:08;;;;;;;8.82;4.93;;;12.30;99.60;;;;;;5054317;28;20025;-52
2023/04/20 10:52:35;;;;;;;8.05;4.63;;;12.30;98.50;;;;;;5054314;28;20042;-50
2023/04/20 10:55:01;;;;;;;10.07;4.50;;;12.40;98.50;;;;;;5054204;28;20056;-52
2023/04/20 10:57:26;;;;;;;4.25;3.88;;;12.40;97.70;;;;;;5054095;28;20057;-54
2023/04/20 10:59:51;;;;;;;4.28;3.80;;;12.50;97.80;;;;;;5053866;28;20476;-51
2023/04/20 11:02:17;;;;;;;6.15;4.10;;;12.40;97.20;;;;;;5054099;28;20448;-53
2023/04/20 11:04:42;;;;;;;6.15;3.75;;;12.40;97.00;;;;;;5054089;28;20396;-51
2023/04/20 11:07:12;;;;;;;5.07;4.25;;;12.50;97.10;;;;;;5053726;28;20044;-55
2023/04/20 11:09:38;;;;;;;19.83;11.85;;;12.70;96.50;;;;;;5053528;28;20055;-50
2023/04/20 11:12:10;;;;;;;48.42;25.98;;;12.70;96.60;;;;;;5035838;28;20024;-50
2023/04/20 11:14:49;;;;;;;7.90;4.63;;;12.70;96.50;;;;;;5053549;28;20020;-54
2023/04/20 11:17:14;;;;;;;4.95;4.35;;;12.70;96.50;;;;;;5053489;28;20025;-57
2023/04/20 11:19:40;;;;;;;6.13;4.05;;;12.50;96.80;;;;;;5053331;28;20047;-55
2023/04/20 11:22:06;;;;;;;4.40;3.80;;;12.50;96.40;;;;;;5052663;28;20021;-51
2023/04/20 11:24:32;;;;;;;4.85;3.45;;;12.40;96.20;;;;;;5053153;28;20082;-52
2023/04/20 11:26:59;;;;;;;4.30;3.15;;;12.50;96.50;;;;;;5053231;28;20083;-51
2023/04/20 11:29:38;;;;;;;7.47;3.70;;;12.30;94.90;;;;;;5053235;28;20487;-52
2023/04/20 11:32:10;;;;;;;4.35;3.28;;;12.40;95.20;;;;;;5053206;28;20497;-51
2023/04/20 11:34:37;;;;;;;7.93;3.92;;;12.40;95.30;;;;;;5053188;28;20070;-51
2023/04/20 11:37:05;;;;;;;3.40;3.10;;;12.60;94.80;;;;;;5053189;28;20021;-52
2023/04/20 11:39:32;;;;;;;4.47;3.58;;;12.60;94.10;;;;;;5053136;28;20021;-54
2023/04/20 11:41:58;;;;;;;5.97;4.30;;;12.70;94.20;;;;;;5053335;28;20071;-55
2023/04/20 11:44:24;;;;;;;6.68;3.35;;;12.70;93.80;;;;;;5053081;28;20032;-52
2023/04/20 11:46:53;;;;;;;3.75;3.33;;;12.70;94.20;;;;;;5053074;28;20488;-52
2023/04/20 11:49:20;;;;;;;4.22;3.83;;;12.80;93.50;;;;;;5053012;28;20029;-53
2023/04/20 11:51:46;;;;;;;3.30;3.08;;;12.80;93.20;;;;;;5052919;28;20017;-55
2023/04/20 11:54:12;;;;;;;5.40;3.63;;;12.70;93.20;;;;;;5052511;28;20021;-49
2023/04/20 11:56:40;;;;;;;5.88;3.92;;;12.70;92.80;;;;;;5053400;28;20033;-52
2023/04/20 11:59:06;;;;;;;4.50;3.35;;;12.70;92.10;;;;;;5052895;28;20094;-58
2023/04/20 12:01:33;;;;;;;5.13;2.92;;;12.70;92.00;;;;;;5052977;28;20103;-54
2023/04/20 12:04:02;;;;;;;4.20;3.15;;;12.70;92.10;;;;;;5052562;28;20024;-54
2023/04/20 12:06:28;;;;;;;3.33;3.03;;;12.70;91.10;;;;;;5052754;28;20096;-54
2023/04/20 12:08:55;;;;;;;4.25;2.80;;;12.60;91.40;;;;;;5052560;28;20036;-54
2023/04/20 12:11:21;;;;;;;4.03;3.28;;;12.60;91.80;;;;;;5052560;28;20104;-50
2023/04/20 12:13:46;;;;;;;9.30;6.55;;;12.70;92.00;;;;;;5052458;28;20128;-54
2023/04/20 12:16:12;;;;;;;4.30;3.45;;;12.80;91.20;;;;;;5052298;28;20027;-53
2023/04/20 12:18:37;;;;;;;5.80;3.35;;;12.90;90.80;;;;;;5052260;28;20025;-52
2023/04/20 12:21:03;;;;;;;5.72;2.90;;;13.00;92.30;;;;;;5052034;28;20064;-53
2023/04/20 12:23:29;;;;;;;3.30;2.72;;;13.20;90.10;;;;;;5052068;28;20463;-54
2023/04/20 12:25:55;;;;;;;5.85;3.03;;;13.10;89.30;;;;;;5051667;28;20096;-54
2023/04/20 12:28:20;;;;;;;6.80;3.40;;;13.10;90.20;;;;;;5052027;28;20082;-54
2023/04/20 12:30:46;;;;;;;3.60;3.13;;;12.90;90.40;;;;;;5034260;28;20033;-55
2023/04/20 12:33:11;;;;;;;4.35;3.22;;;12.80;91.30;;;;;;5050662;28;20029;-55
2023/04/20 12:35:37;;;;;;;4.50;3.67;;;12.90;91.20;;;;;;5051795;28;20043;-51
2023/04/20 12:38:02;;;;;;;3.63;3.08;;;12.80;90.70;;;;;;5051611;28;20135;-50
2023/04/20 12:40:28;;;;;;;3.42;3.13;;;12.70;91.20;;;;;;5070888;28;20388;-53
2023/04/20 12:42:53;;;;;;;3.03;2.83;;;12.70;89.60;;;;;;5062459;28;20403;-59
2023/04/20 12:45:19;;;;;;;2.80;2.60;;;12.80;88.50;;;;;;5056161;28;20039;-51